createdAt,value
2018-06-30T00:02:13.839Z,92544.66
2018-06-30T00:04:47.358Z,92552.90
2018-06-30T00:07:15.359Z,92557.07
2018-06-30T00:09:43.473Z,92552.15
2018-06-30T00:12:11.586Z,92555.05
2018-06-30T00:14:39.667Z,92560.63
2018-06-30T00:17:07.801Z,92563.85
2018-06-30T00:19:35.815Z,92563.25
2018-06-30T00:22:04.066Z,92569.30
2018-06-30T00:24:32.160Z,92564.34
2018-06-30T00:27:31.378Z,92575.48
2018-06-30T00:30:00.317Z,92573.85
2018-06-30T00:32:28.644Z,92564.70
2018-06-30T00:34:56.676Z,92568.95
2018-06-30T00:37:24.719Z,92572.48
2018-06-30T00:39:52.821Z,92569.83
2018-06-30T00:42:20.830Z,92569.62
2018-06-30T00:44:48.916Z,92569.23
2018-06-30T00:47:16.976Z,92572.78
2018-06-30T00:49:45.007Z,92568.25
2018-06-30T00:52:13.051Z,92567.22
2018-06-30T00:54:41.082Z,92563.65
2018-06-30T00:57:10.014Z,92554.45
2018-06-30T00:59:38.037Z,92555.90
2018-06-30T01:02:06.441Z,92555.09
2018-06-30T01:04:35.539Z,92554.13
2018-06-30T01:07:03.563Z,92557.70
2018-06-30T01:09:31.543Z,92553.10
2018-06-30T01:11:59.563Z,92558.38
2018-06-30T01:14:27.812Z,92559.69
2018-06-30T01:16:55.825Z,92559.27
2018-06-30T01:19:23.808Z,92555.05
2018-06-30T01:21:51.945Z,92541.01
2018-06-30T01:24:20.040Z,92542.92
2018-06-30T01:26:48.052Z,92538.63
2018-06-30T01:29:16.103Z,92542.20
2018-06-30T01:31:44.119Z,92546.91
2018-06-30T01:34:12.165Z,92545.83
2018-06-30T01:36:40.207Z,92545.61
2018-06-30T01:39:09.975Z,92543.52
2018-06-30T01:41:38.065Z,92537.61
2018-06-30T01:44:06.120Z,92544.15
2018-06-30T01:46:34.155Z,92542.52
2018-06-30T01:49:02.211Z,92548.36
2018-06-30T01:51:30.257Z,92544.09
2018-06-30T01:53:58.303Z,92541.57
2018-06-30T01:56:26.430Z,92538.77
2018-06-30T01:58:54.482Z,92537.95
2018-06-30T02:01:22.502Z,92542.02
2018-06-30T02:03:50.560Z,92540.58
2018-06-30T02:06:18.664Z,92546.34
2018-06-30T02:08:46.610Z,92542.70
2018-06-30T02:11:14.634Z,92540.76
2018-06-30T02:13:42.735Z,92535.48
2018-06-30T02:16:10.803Z,92541.88
2018-06-30T02:18:38.828Z,92538.42
2018-06-30T02:21:06.954Z,92536.30
2018-06-30T02:23:35.043Z,92534.36
2018-06-30T02:26:03.093Z,92531.70
2018-06-30T02:28:31.236Z,92529.27
2018-06-30T02:30:59.340Z,92538.91
2018-06-30T02:33:27.406Z,92539.70
2018-06-30T02:35:55.488Z,92538.00
2018-06-30T02:38:23.548Z,92534.56
2018-06-30T02:40:51.519Z,92537.33
2018-06-30T02:43:19.742Z,92537.64
2018-06-30T02:45:47.766Z,92538.63
2018-06-30T02:48:15.867Z,92535.17
2018-06-30T02:50:43.908Z,92537.61
2018-06-30T02:53:12.029Z,92534.81
2018-06-30T02:55:40.102Z,92544.15
2018-06-30T02:58:08.239Z,92534.36
2018-06-30T03:00:36.294Z,92535.66
2018-06-30T03:03:04.624Z,92531.06
2018-06-30T03:05:32.685Z,92538.32
2018-06-30T03:08:00.808Z,92536.02
2018-06-30T03:10:28.903Z,92543.91
2018-06-30T03:12:57.044Z,92545.22
2018-06-30T03:15:25.065Z,92541.15
2018-06-30T03:17:53.084Z,92549.95
2018-06-30T03:20:21.160Z,92549.46
2018-06-30T03:22:49.234Z,92547.59
2018-06-30T03:25:17.309Z,92556.72
2018-06-30T03:27:45.502Z,92558.52
2018-06-30T03:30:13.585Z,92556.55
2018-06-30T03:32:41.704Z,92551.62
2018-06-30T03:35:09.876Z,92554.45
2018-06-30T03:37:37.912Z,92561.33
2018-06-30T03:40:05.934Z,92561.50
2018-06-30T03:42:34.122Z,92555.48
2018-06-30T03:45:02.210Z,92558.14
2018-06-30T03:47:30.503Z,92555.73
2018-06-30T03:49:58.777Z,92552.30
2018-06-30T03:52:26.922Z,92553.01
2018-06-30T03:54:55.201Z,92559.97
2018-06-30T03:57:23.566Z,92554.52
2018-06-30T03:59:51.935Z,92562.29
2018-06-30T04:02:19.938Z,92557.14
2018-06-30T04:04:47.988Z,92554.28
2018-06-30T04:07:16.025Z,92554.88
2018-06-30T04:09:44.161Z,92558.20
2018-06-30T04:12:12.381Z,92562.55
2018-06-30T04:14:40.426Z,92562.66
2018-06-30T04:17:08.497Z,92564.50
2018-06-30T04:19:36.804Z,92570.76
2018-06-30T04:22:04.906Z,92561.07
2018-06-30T04:24:33.027Z,92568.05
2018-06-30T04:27:01.180Z,92562.14
2018-06-30T04:29:29.315Z,92567.20
2018-06-30T04:31:57.445Z,92576.12
2018-06-30T04:34:25.603Z,92577.75
2018-06-30T04:36:53.731Z,92578.67
2018-06-30T04:39:22.093Z,92579.34
2018-06-30T04:41:50.419Z,92574.39
2018-06-30T04:44:18.719Z,92581.73
2018-06-30T04:46:47.064Z,92581.61
2018-06-30T04:49:15.369Z,92580.66
2018-06-30T04:51:43.539Z,92585.67
2018-06-30T04:54:13.999Z,92586.54
2018-06-30T04:56:42.410Z,92579.64
2018-06-30T04:59:10.847Z,92581.81
2018-06-30T05:01:39.001Z,92574.39
2018-06-30T05:04:07.247Z,92576.05
2018-06-30T05:06:35.568Z,92574.12
2018-06-30T05:09:05.486Z,92578.50
2018-06-30T05:11:33.649Z,92587.55
2018-06-30T05:14:01.909Z,92589.23
2018-06-30T05:16:30.159Z,92581.07
2018-06-30T05:18:58.638Z,92572.81
2018-06-30T05:21:26.854Z,92585.48
2018-06-30T05:23:55.033Z,92585.02
2018-06-30T05:26:23.140Z,92593.02
2018-06-30T05:28:51.357Z,92592.80
2018-06-30T05:31:19.540Z,92590.66
2018-06-30T05:33:47.661Z,92595.71
2018-06-30T05:36:15.811Z,92590.18
2018-06-30T05:38:44.292Z,92591.63
2018-06-30T05:41:12.486Z,92592.83
2018-06-30T05:43:40.855Z,92592.27
2018-06-30T05:46:09.219Z,92596.55
2018-06-30T05:48:37.517Z,92601.95
2018-06-30T05:51:06.013Z,92598.05
2018-06-30T05:53:34.209Z,92597.80
2018-06-30T05:56:02.403Z,92600.09
2018-06-30T05:58:30.707Z,92600.89
2018-06-30T06:00:58.987Z,92605.92
2018-06-30T06:03:27.291Z,92604.31
2018-06-30T06:05:55.542Z,92605.27
2018-06-30T06:08:23.714Z,92604.03
2018-06-30T06:10:52.127Z,92609.79
2018-06-30T06:13:20.422Z,92604.27
2018-06-30T06:15:48.587Z,92603.64
2018-06-30T06:18:16.930Z,92594.35
2018-06-30T06:20:45.147Z,92602.70
2018-06-30T06:23:13.320Z,92602.00
2018-06-30T06:25:41.505Z,92601.52
2018-06-30T06:28:09.800Z,92599.56
2018-06-30T06:30:37.966Z,92593.33
2018-06-30T06:33:06.268Z,92590.88
2018-06-30T06:35:34.385Z,92598.25
2018-06-30T06:38:02.749Z,92601.42
2018-06-30T06:40:31.069Z,92604.61
2018-06-30T06:42:59.649Z,92610.84
2018-06-30T06:45:27.953Z,92609.06
2018-06-30T06:47:56.381Z,92608.91
2018-06-30T06:50:24.595Z,92616.42
2018-06-30T06:52:52.980Z,92613.80
2018-06-30T06:55:21.631Z,92616.24
2018-06-30T06:57:50.280Z,92615.43
2018-06-30T07:00:18.980Z,92620.38
2018-06-30T07:02:47.349Z,92608.86
2018-06-30T07:05:15.905Z,92615.94
2018-06-30T07:07:44.641Z,92607.20
2018-06-30T07:10:13.311Z,92614.62
2018-06-30T07:12:41.795Z,92616.41
2018-06-30T07:15:10.302Z,92615.55
2018-06-30T07:17:38.576Z,92614.39
2018-06-30T07:20:07.037Z,92617.52
2018-06-30T07:22:35.287Z,92620.95
2018-06-30T07:25:03.613Z,92626.20
2018-06-30T07:27:31.769Z,92625.09
2018-06-30T07:30:00.017Z,92619.48
2018-06-30T07:32:28.084Z,92620.30
2018-06-30T07:34:56.451Z,92622.00
2018-06-30T07:37:24.910Z,92631.67
2018-06-30T07:39:53.197Z,92631.36
2018-06-30T07:42:21.444Z,92627.11
2018-06-30T07:44:49.635Z,92638.13
2018-06-30T07:47:17.760Z,92636.30
2018-06-30T07:49:46.227Z,92633.41
2018-06-30T07:52:14.722Z,92638.66
2018-06-30T07:54:43.048Z,92633.39
2018-06-30T07:57:11.428Z,92635.02
2018-06-30T07:59:39.939Z,92632.56
2018-06-30T08:02:09.681Z,92621.23
2018-06-30T08:04:38.179Z,92630.93
2018-06-30T08:07:06.746Z,92629.63
2018-06-30T08:09:35.412Z,92631.09
2018-06-30T08:12:03.905Z,92637.82
2018-06-30T08:14:32.468Z,92634.71
2018-06-30T08:17:00.682Z,92630.91
2018-06-30T08:19:29.115Z,92632.06
2018-06-30T08:21:57.556Z,92635.36
2018-06-30T08:24:25.907Z,92643.27
2018-06-30T08:26:54.444Z,92649.34
2018-06-30T08:29:23.133Z,92656.37
2018-06-30T08:31:51.518Z,92659.02
2018-06-30T08:34:19.848Z,92664.16
2018-06-30T08:36:48.134Z,92662.67
2018-06-30T08:39:16.676Z,92662.64
2018-06-30T08:41:45.701Z,92672.50
2018-06-30T08:44:14.210Z,92672.64
2018-06-30T08:46:42.605Z,92673.63
2018-06-30T08:49:11.189Z,92679.39
2018-06-30T08:51:39.938Z,92669.67
2018-06-30T08:54:08.410Z,92670.16
2018-06-30T08:56:36.939Z,92669.19
2018-06-30T08:59:05.522Z,92669.19
2018-06-30T09:01:33.889Z,92675.10
2018-06-30T09:04:02.147Z,92673.45
2018-06-30T09:06:30.499Z,92677.91
2018-06-30T09:08:58.952Z,92683.99
2018-06-30T09:11:27.272Z,92683.12
2018-06-30T09:13:55.680Z,92686.45
2018-06-30T09:16:23.920Z,92690.20
2018-06-30T09:18:52.140Z,92692.61
2018-06-30T09:21:20.523Z,92690.17
2018-06-30T09:23:48.650Z,92698.63
2018-06-30T09:26:16.846Z,92708.39
2018-06-30T09:28:44.973Z,92702.94
2018-06-30T09:31:13.264Z,92705.30
2018-06-30T09:33:41.418Z,92703.11
2018-06-30T09:36:09.703Z,92698.98
2018-06-30T09:38:37.790Z,92705.61
2018-06-30T09:41:06.120Z,92699.02
2018-06-30T09:43:34.543Z,92706.50
2018-06-30T09:46:02.932Z,92705.17
2018-06-30T09:48:31.443Z,92698.56
2018-06-30T09:51:00.220Z,92707.91
2018-06-30T09:53:28.802Z,92701.08
2018-06-30T09:55:57.539Z,92699.66
2018-06-30T09:58:26.058Z,92702.48
2018-06-30T10:01:01.194Z,92702.11
2018-06-30T10:03:29.795Z,92708.45
2018-06-30T10:05:59.019Z,92706.19
2018-06-30T10:08:27.821Z,92707.36
2018-06-30T10:10:56.395Z,92703.68
2018-06-30T10:13:25.102Z,92708.27
2018-06-30T10:15:53.804Z,92708.52
2018-06-30T10:18:22.217Z,92712.52
2018-06-30T10:20:51.048Z,92712.19
2018-06-30T10:23:19.625Z,92725.36
2018-06-30T10:25:48.196Z,92716.59
2018-06-30T10:28:16.620Z,92727.45
2018-06-30T10:30:45.141Z,92716.59
2018-06-30T10:33:13.667Z,92728.89
2018-06-30T10:35:42.285Z,92721.44
2018-06-30T10:38:11.089Z,92724.94
2018-06-30T10:40:39.585Z,92712.28
2018-06-30T10:43:08.046Z,92720.44
2018-06-30T10:45:37.786Z,92727.03
2018-06-30T10:48:07.637Z,92718.78
2018-06-30T10:50:35.940Z,92721.93
2018-06-30T10:53:04.315Z,92718.16
2018-06-30T10:55:33.161Z,92725.80
2018-06-30T10:58:01.504Z,92722.05
2018-06-30T11:00:30.113Z,92727.28
2018-06-30T11:02:58.700Z,92721.69
2018-06-30T11:05:27.692Z,92716.14
2018-06-30T11:07:56.352Z,92718.16
2018-06-30T11:10:25.004Z,92719.64
2018-06-30T11:12:53.537Z,92720.78
2018-06-30T11:15:22.280Z,92720.02
2018-06-30T11:17:51.025Z,92716.80
2018-06-30T11:20:19.811Z,92715.44
2018-06-30T11:22:48.427Z,92720.25
2018-06-30T11:25:16.889Z,92719.46
2018-06-30T11:27:45.432Z,92717.03
2018-06-30T11:30:19.206Z,92722.99
2018-06-30T11:32:50.562Z,92721.67
2018-06-30T11:35:21.487Z,92720.34
2018-06-30T11:37:50.894Z,92717.84
2018-06-30T11:40:19.652Z,92710.38
2018-06-30T11:42:48.422Z,92709.05
2018-06-30T11:45:17.456Z,92708.83
2018-06-30T11:47:46.663Z,92700.31
2018-06-30T11:50:15.422Z,92707.04
2018-06-30T11:52:44.088Z,92703.19
2018-06-30T11:55:14.566Z,92702.92
2018-06-30T11:57:43.238Z,92709.38
2018-06-30T12:00:11.773Z,92704.51
2018-06-30T12:02:40.425Z,92697.76
2018-06-30T12:05:09.211Z,92701.69
2018-06-30T12:07:37.878Z,92704.34
2018-06-30T12:10:06.474Z,92707.59
2018-06-30T12:12:35.361Z,92713.04
2018-06-30T12:15:04.611Z,92705.15
2018-06-30T12:17:33.210Z,92700.01
2018-06-30T12:20:01.682Z,92699.36
2018-06-30T12:22:30.421Z,92705.06
2018-06-30T12:24:59.145Z,92704.94
2018-06-30T12:27:27.687Z,92704.28
2018-06-30T12:29:56.213Z,92699.11
2018-06-30T12:32:24.811Z,92701.61
2018-06-30T12:34:53.678Z,92699.00
2018-06-30T12:37:22.219Z,92700.39
2018-06-30T12:39:51.558Z,92699.11
2018-06-30T12:42:20.221Z,92686.97
2018-06-30T12:44:48.900Z,92694.63
2018-06-30T12:47:17.428Z,92694.09
2018-06-30T12:49:45.924Z,92686.44
2018-06-30T12:52:18.062Z,92695.40
2018-06-30T12:54:46.832Z,92693.95
2018-06-30T12:57:15.411Z,92685.88
2018-06-30T12:59:44.160Z,92690.87
2018-06-30T13:02:12.711Z,92688.23
2018-06-30T13:04:41.226Z,92701.72
2018-06-30T13:07:09.661Z,92697.81
2018-06-30T13:09:38.367Z,92695.28
2018-06-30T13:12:06.861Z,92695.89
2018-06-30T13:14:35.543Z,92695.80
2018-06-30T13:17:03.993Z,92695.90
2018-06-30T13:19:32.641Z,92694.32
2018-06-30T13:22:01.093Z,92684.73
2018-06-30T13:24:29.737Z,92680.52
2018-06-30T13:26:58.286Z,92678.53
2018-06-30T13:29:26.792Z,92686.89
2018-06-30T13:31:55.359Z,92680.45
2018-06-30T13:34:24.099Z,92678.59
2018-06-30T13:36:52.463Z,92688.20
2018-06-30T13:39:21.006Z,92691.70
2018-06-30T13:41:49.452Z,92688.86
2018-06-30T13:44:17.987Z,92684.66
2018-06-30T13:46:46.589Z,92686.39
2018-06-30T13:49:15.151Z,92683.40
2018-06-30T13:51:43.750Z,92689.03
2018-06-30T13:54:12.250Z,92693.97
2018-06-30T13:56:40.723Z,92685.22
2018-06-30T13:59:09.455Z,92686.86
2018-06-30T14:01:38.041Z,92688.62
2018-06-30T14:04:06.522Z,92686.24
2018-06-30T14:06:34.906Z,92679.05
2018-06-30T14:09:06.025Z,92676.10
2018-06-30T14:11:34.562Z,92681.71
2018-06-30T14:14:03.527Z,92684.30
2018-06-30T14:16:32.172Z,92678.60
2018-06-30T14:19:00.780Z,92687.45
2018-06-30T14:21:30.094Z,92686.80
2018-06-30T14:23:58.878Z,92685.98
2018-06-30T14:26:28.235Z,92697.63
2018-06-30T14:28:58.935Z,92698.55
2018-06-30T14:31:27.936Z,92701.75
2018-06-30T14:33:57.680Z,92708.86
2018-06-30T14:36:26.936Z,92711.31
2018-06-30T14:38:55.762Z,92706.56
2018-06-30T14:41:24.180Z,92712.85
2018-06-30T14:44:00.424Z,92718.45
2018-06-30T14:46:28.864Z,92720.00
2018-06-30T14:48:57.340Z,92712.45
2018-06-30T14:51:25.913Z,92716.66
2018-06-30T14:53:54.334Z,92714.16
2018-06-30T14:56:23.056Z,92716.80
2018-06-30T14:58:51.736Z,92721.24
2018-06-30T15:01:20.329Z,92721.13
2018-06-30T15:03:48.789Z,92701.31
2018-06-30T15:06:17.123Z,92721.33
2018-06-30T15:08:45.807Z,92729.28
2018-06-30T15:11:15.021Z,92731.73
2018-06-30T15:13:44.279Z,92738.31
2018-06-30T15:16:14.511Z,92751.08
2018-06-30T15:18:44.532Z,92776.08
2018-06-30T15:21:14.085Z,92772.19
2018-06-30T15:23:42.721Z,92783.58
2018-06-30T15:26:12.632Z,92801.84
2018-06-30T15:28:41.294Z,92816.78
2018-06-30T15:31:09.888Z,92798.70
2018-06-30T15:33:38.670Z,92814.34
2018-06-30T15:36:08.750Z,92806.98
2018-06-30T15:38:38.799Z,92807.50
2018-06-30T15:41:07.849Z,92810.95
2018-06-30T15:43:36.520Z,92814.66
2018-06-30T15:46:07.216Z,92813.20
2018-06-30T15:48:36.113Z,92813.72
2018-06-30T15:51:05.030Z,92805.76
2018-06-30T15:53:33.639Z,92820.17
2018-06-30T15:56:05.360Z,92813.24
2018-06-30T15:58:33.960Z,92812.92
2018-06-30T16:01:02.399Z,92825.08
2018-06-30T16:03:31.043Z,92830.40
2018-06-30T16:06:00.598Z,92833.18
2018-06-30T16:08:29.582Z,92838.13
2018-06-30T16:10:58.008Z,92831.66
2018-06-30T16:13:26.885Z,92843.83
2018-06-30T16:15:58.481Z,92841.69
2018-06-30T16:18:27.681Z,92850.05
2018-06-30T16:20:56.396Z,92834.80
2018-06-30T16:23:25.132Z,92845.95
2018-06-30T16:25:55.715Z,92857.08
2018-06-30T16:28:24.378Z,92855.39
2018-06-30T16:30:53.059Z,92861.01
2018-06-30T16:33:21.610Z,92858.53
2018-06-30T16:35:52.041Z,92857.97
2018-06-30T16:38:20.486Z,92863.50
2018-06-30T16:40:48.888Z,92860.20
2018-06-30T16:43:17.451Z,92871.45
2018-06-30T16:45:50.654Z,92874.64
2018-06-30T16:48:19.169Z,92875.51
2018-06-30T16:50:47.629Z,92878.31
2018-06-30T16:53:16.018Z,92880.48
2018-06-30T16:55:45.397Z,92876.88
2018-06-30T16:58:13.901Z,92878.34
2018-06-30T17:00:42.398Z,92885.79
2018-06-30T17:03:10.913Z,92883.84
2018-06-30T17:05:42.593Z,92884.81
2018-06-30T17:08:11.327Z,92891.59
2018-06-30T17:10:39.796Z,92886.31
2018-06-30T17:13:08.427Z,92880.35
2018-06-30T17:15:37.097Z,92880.35
2018-06-30T17:18:05.684Z,92889.09
2018-06-30T17:20:34.095Z,92896.53
2018-06-30T17:23:02.733Z,92899.82
2018-06-30T17:25:32.384Z,92898.13
2018-06-30T17:28:01.216Z,92900.63
2018-06-30T17:30:30.000Z,92900.14
2018-06-30T17:32:58.936Z,92903.08
2018-06-30T17:35:27.599Z,92909.48
2018-06-30T17:37:56.341Z,92911.45
2018-06-30T17:40:25.897Z,92911.45
2018-06-30T17:42:54.476Z,92911.91
2018-06-30T17:45:24.051Z,92910.44
2018-06-30T17:47:52.688Z,92917.02
2018-06-30T17:50:21.509Z,92920.59
2018-06-30T17:52:50.229Z,92926.67
2018-06-30T17:55:19.003Z,92936.03
2018-06-30T17:57:47.668Z,92937.48
2018-06-30T18:00:16.068Z,92935.13
2018-06-30T18:02:44.601Z,92942.14
2018-06-30T18:05:13.337Z,92942.96
2018-06-30T18:07:42.428Z,92949.17
2018-06-30T18:10:11.381Z,92953.44
2018-06-30T18:12:40.030Z,92953.68
2018-06-30T18:15:09.679Z,92958.70
2018-06-30T18:17:38.728Z,92970.75
2018-06-30T18:20:07.201Z,92968.36
2018-06-30T18:22:37.499Z,92971.73
2018-06-30T18:25:06.623Z,92976.98
2018-06-30T18:27:36.420Z,92981.36
2018-06-30T18:30:06.691Z,92981.39
2018-06-30T18:32:35.090Z,92990.81
2018-06-30T18:35:03.734Z,93002.59
2018-06-30T18:37:32.268Z,92998.33
2018-06-30T18:40:00.874Z,93000.88
2018-06-30T18:42:29.506Z,93010.77
2018-06-30T18:44:58.193Z,93016.58
2018-06-30T18:47:26.796Z,93016.86
2018-06-30T18:49:55.362Z,93016.31
2018-06-30T18:52:23.896Z,93025.61
2018-06-30T18:54:53.580Z,93025.75
2018-06-30T18:57:22.032Z,93032.72
2018-06-30T18:59:50.725Z,93032.13
2018-06-30T19:02:23.518Z,93043.92
2018-06-30T19:04:55.420Z,93040.08
2018-06-30T19:07:24.095Z,93041.83
2018-06-30T19:09:53.616Z,93046.03
2018-06-30T19:12:22.226Z,93044.94
2018-06-30T19:14:50.718Z,93058.05
2018-06-30T19:17:19.050Z,93054.19
2018-06-30T19:19:47.828Z,93063.77
2018-06-30T19:22:16.562Z,93061.14
2018-06-30T19:24:44.997Z,93058.95
2018-06-30T19:27:22.463Z,93062.60
2018-06-30T19:29:53.280Z,93071.41
2018-06-30T19:32:22.229Z,93062.75
2018-06-30T19:34:55.612Z,93065.86
2018-06-30T19:37:24.589Z,93063.23
2018-06-30T19:39:53.489Z,93073.85
2018-06-30T19:42:22.198Z,93079.91
2018-06-30T19:44:50.907Z,93081.70
2018-06-30T19:47:19.982Z,93090.33
2018-06-30T19:49:49.076Z,93082.89
2018-06-30T19:52:18.514Z,93095.56
2018-06-30T19:54:48.427Z,93089.02
2018-06-30T19:57:18.086Z,93094.06
2018-06-30T19:59:46.874Z,93089.70
2018-06-30T20:02:15.643Z,93094.19
2018-06-30T20:04:44.302Z,93097.69
2018-06-30T20:07:13.412Z,93089.28
2018-06-30T20:09:42.027Z,93093.14
2018-06-30T20:12:10.526Z,93101.28
2018-06-30T20:14:41.422Z,93101.55
2018-06-30T20:17:10.024Z,93110.59
2018-06-30T20:19:38.620Z,93103.25
2018-06-30T20:22:07.295Z,93104.65
2018-06-30T20:24:36.095Z,93102.98
2018-06-30T20:27:04.747Z,93111.03
2018-06-30T20:29:33.932Z,93110.96
2018-06-30T20:32:02.548Z,93101.03
2018-06-30T20:34:31.010Z,93110.34
2018-06-30T20:36:59.776Z,93120.20
2018-06-30T20:39:28.403Z,93121.56
2018-06-30T20:41:56.964Z,93110.40
2018-06-30T20:44:25.446Z,93118.87
2018-06-30T20:46:53.863Z,93125.16
2018-06-30T20:49:22.590Z,93136.33
2018-06-30T20:51:50.905Z,93132.89
2018-06-30T20:54:19.457Z,93128.34
2018-06-30T20:56:47.802Z,93140.38
2018-06-30T20:59:16.395Z,93141.82
2018-06-30T21:01:45.342Z,93149.39
2018-06-30T21:04:15.339Z,93148.34
2018-06-30T21:06:43.791Z,93154.32
2018-06-30T21:09:12.228Z,93154.50
2018-06-30T21:11:41.491Z,93162.41
2018-06-30T21:14:09.784Z,93172.11
2018-06-30T21:16:38.038Z,93168.18
2018-06-30T21:19:06.485Z,93172.34
2018-06-30T21:21:35.688Z,93177.78
2018-06-30T21:24:04.660Z,93179.61
2018-06-30T21:26:33.075Z,93171.08
2018-06-30T21:29:01.274Z,93173.77
2018-06-30T21:31:29.558Z,93176.75
2018-06-30T21:33:57.918Z,93179.93
2018-06-30T21:36:27.285Z,93178.75
2018-06-30T21:38:55.638Z,93179.50
2018-06-30T21:41:23.799Z,93178.67
2018-06-30T21:43:52.067Z,93183.55
2018-06-30T21:46:22.413Z,93180.24
2018-06-30T21:48:50.729Z,93188.59
2018-06-30T21:51:19.021Z,93192.44
2018-06-30T21:53:47.341Z,93191.06
2018-06-30T21:56:15.854Z,93193.80
2018-06-30T21:58:44.897Z,93192.67
2018-06-30T22:01:18.623Z,93185.81
2018-06-30T22:03:46.928Z,93183.28
2018-06-30T22:06:16.238Z,93184.11
2018-06-30T22:08:44.514Z,93188.53
2018-06-30T22:11:13.701Z,93190.48
2018-06-30T22:13:42.782Z,93194.42
2018-06-30T22:16:11.873Z,93190.78
2018-06-30T22:18:40.430Z,93191.42
2018-06-30T22:21:09.107Z,93190.03
2018-06-30T22:23:37.489Z,93193.41
2018-06-30T22:26:08.756Z,93191.98
2018-06-30T22:28:37.261Z,93194.39
2018-06-30T22:31:05.857Z,93199.53
2018-06-30T22:33:34.145Z,93195.52
2018-06-30T22:36:04.492Z,93199.89
2018-06-30T22:38:32.831Z,93195.16
2018-06-30T22:41:01.007Z,93193.75
2018-06-30T22:43:29.266Z,93195.79
2018-06-30T22:45:57.478Z,93196.52
2018-06-30T22:48:25.820Z,93190.95
2018-06-30T22:50:54.224Z,93194.51
2018-06-30T22:53:22.448Z,93189.16
2018-06-30T22:55:52.625Z,93190.59
2018-06-30T22:58:20.786Z,93197.75
2018-06-30T23:00:48.940Z,93195.14
2018-06-30T23:03:17.320Z,93195.63
2018-06-30T23:05:52.273Z,93190.77
2018-06-30T23:08:20.374Z,93191.85
2018-06-30T23:10:48.485Z,93198.77
2018-06-30T23:13:16.594Z,93196.38
2018-06-30T23:15:44.773Z,93195.75
2018-06-30T23:18:12.912Z,93198.36
2018-06-30T23:20:41.030Z,93195.05
2018-06-30T23:23:10.237Z,93196.45
2018-06-30T23:25:39.116Z,93198.45
2018-06-30T23:28:07.712Z,93204.17
2018-06-30T23:30:36.072Z,93204.77
2018-06-30T23:33:04.147Z,93212.73
2018-06-30T23:38:06.748Z,93220.31
2018-06-30T23:40:34.849Z,93215.93
2018-06-30T23:43:02.901Z,93204.89
2018-06-30T23:45:31.168Z,93210.63
2018-06-30T23:47:59.287Z,93210.61
2018-06-30T23:50:27.304Z,93211.19
2018-06-30T23:52:55.428Z,93215.25
2018-06-30T23:55:27.626Z,93211.86
2018-06-30T23:57:55.677Z,93214.70
